createdAt,value
2022-08-27T00:02:12.219Z,14.78
2022-08-27T00:04:43.633Z,14.75
2022-08-27T00:07:11.687Z,14.71
2022-08-27T00:09:44.240Z,14.66
2022-08-27T00:12:11.975Z,14.62
2022-08-27T00:14:39.705Z,14.60
2022-08-27T00:17:09.032Z,14.61
2022-08-27T00:19:37.597Z,14.37
2022-08-27T00:22:10.729Z,14.53
2022-08-27T00:24:48.476Z,14.58
2022-08-27T00:27:19.143Z,14.66
2022-08-27T00:29:48.623Z,14.73
2022-08-27T00:32:17.092Z,14.69
2022-08-27T00:34:47.024Z,14.55
2022-08-27T00:37:17.209Z,14.55
2022-08-27T00:39:50.030Z,14.38
2022-08-27T00:42:20.445Z,14.61
2022-08-27T00:44:47.552Z,14.57
2022-08-27T00:47:19.356Z,14.61
2022-08-27T00:49:52.990Z,14.57
2022-08-27T00:52:29.967Z,14.54
2022-08-27T00:55:02.152Z,14.42
2022-08-27T00:57:34.220Z,14.33
2022-08-27T01:00:02.438Z,14.24
2022-08-27T01:02:42.617Z,14.27
2022-08-27T01:05:12.698Z,14.11
2022-08-27T01:07:48.247Z,14.28
2022-08-27T01:10:20.393Z,14.27
2022-08-27T01:12:53.339Z,14.27
2022-08-27T01:15:23.870Z,14.14
2022-08-27T01:17:55.781Z,14.15
2022-08-27T01:20:31.913Z,14.06
2022-08-27T01:23:10.520Z,14.04
2022-08-27T01:25:42.965Z,13.99
2022-08-27T01:28:16.541Z,13.96
2022-08-27T01:30:49.405Z,13.94
2022-08-27T01:33:21.435Z,13.95
2022-08-27T01:35:51.294Z,13.89
2022-08-27T01:38:30.756Z,14.01
2022-08-27T01:41:01.212Z,14.17
2022-08-27T01:43:28.630Z,14.17
2022-08-27T01:45:55.740Z,14.14
2022-08-27T01:48:23.510Z,14.14
2022-08-27T01:50:54.126Z,14.04
2022-08-27T01:53:28.156Z,14.12
2022-08-27T01:55:57.408Z,13.83
2022-08-27T01:58:30.072Z,13.84
2022-08-27T02:01:03.891Z,13.71
2022-08-27T02:03:35.820Z,13.59
2022-08-27T02:06:06.504Z,13.66
2022-08-27T02:08:38.127Z,13.69
2022-08-27T02:11:07.444Z,13.74
2022-08-27T02:13:38.538Z,13.83
2022-08-27T02:16:08.823Z,13.84
2022-08-27T02:18:36.217Z,13.80
2022-08-27T02:21:09.173Z,13.75
2022-08-27T02:23:36.217Z,13.79
2022-08-27T02:26:05.868Z,13.91
2022-08-27T02:28:34.116Z,13.92
2022-08-27T02:31:05.936Z,13.87
2022-08-27T02:33:33.623Z,13.84
2022-08-27T02:36:04.457Z,14.00
2022-08-27T02:38:37.358Z,14.16
2022-08-27T02:41:09.319Z,14.19
2022-08-27T02:43:36.255Z,13.99
2022-08-27T02:46:09.990Z,14.11
2022-08-27T02:48:37.891Z,14.07
2022-08-27T02:51:08.007Z,14.08
2022-08-27T02:53:38.305Z,14.21
2022-08-27T02:56:11.413Z,14.34
2022-08-27T02:58:40.963Z,14.34
2022-08-27T03:01:13.780Z,14.48
2022-08-27T03:03:43.365Z,14.59
2022-08-27T03:06:12.142Z,14.63
2022-08-27T03:08:52.927Z,14.63
2022-08-27T03:11:22.586Z,14.61
2022-08-27T03:16:28.599Z,14.71
2022-08-27T03:18:59.043Z,14.72
2022-08-27T03:21:27.387Z,14.69
2022-08-27T03:23:56.704Z,14.76
2022-08-27T03:26:24.531Z,14.75
2022-08-27T03:28:52.605Z,14.72
2022-08-27T03:31:22.393Z,14.71
2022-08-27T03:34:02.258Z,14.66
2022-08-27T03:36:31.580Z,14.61
2022-08-27T03:38:58.804Z,14.58
2022-08-27T03:41:43.458Z,14.65
2022-08-27T03:44:21.309Z,14.73
2022-08-27T03:46:49.901Z,14.87
2022-08-27T03:49:22.861Z,14.80
2022-08-27T03:51:52.816Z,14.70
2022-08-27T03:54:21.655Z,14.76
2022-08-27T03:56:48.859Z,14.64
2022-08-27T03:59:19.858Z,14.59
2022-08-27T04:01:49.044Z,14.60
2022-08-27T04:04:26.237Z,14.42
2022-08-27T04:06:57.863Z,14.30
2022-08-27T04:09:26.750Z,14.34
2022-08-27T04:11:55.328Z,14.36
2022-08-27T04:14:27.135Z,14.22
2022-08-27T04:16:56.632Z,14.33
2022-08-27T04:19:31.527Z,14.27
2022-08-27T04:22:06.331Z,14.24
2022-08-27T04:24:36.644Z,14.18
2022-08-27T04:27:11.671Z,14.03
2022-08-27T04:29:45.184Z,14.06
2022-08-27T04:32:17.198Z,13.97
2022-08-27T04:34:44.490Z,14.02
2022-08-27T04:37:23.131Z,14.05
2022-08-27T04:39:51.072Z,14.13
2022-08-27T04:42:19.385Z,14.21
2022-08-27T04:44:47.067Z,14.22
2022-08-27T04:47:23.164Z,14.19
2022-08-27T04:49:51.495Z,14.15
2022-08-27T04:52:26.814Z,14.13
2022-08-27T04:55:01.121Z,14.05
2022-08-27T04:57:31.707Z,14.10
2022-08-27T04:59:58.794Z,14.21
2022-08-27T05:02:28.641Z,14.20
2022-08-27T05:04:55.454Z,14.14
2022-08-27T05:07:25.274Z,14.08
2022-08-27T05:09:58.379Z,14.10
2022-08-27T05:12:31.109Z,14.16
2022-08-27T05:14:58.975Z,14.16
2022-08-27T05:17:27.460Z,14.17
2022-08-27T05:19:57.910Z,14.19
2022-08-27T05:22:25.010Z,14.20
2022-08-27T05:24:56.089Z,14.27
2022-08-27T05:27:24.474Z,14.33
2022-08-27T05:29:51.499Z,14.38
2022-08-27T05:32:19.301Z,14.42
2022-08-27T05:34:47.428Z,14.48
2022-08-27T05:37:14.415Z,14.52
2022-08-27T05:39:41.645Z,14.51
2022-08-27T05:42:08.534Z,14.54
2022-08-27T05:44:41.060Z,14.52
2022-08-27T05:47:11.111Z,14.57
2022-08-27T05:49:37.930Z,14.66
2022-08-27T05:52:11.008Z,15.56
2022-08-27T05:54:38.618Z,16.49
2022-08-27T05:57:12.472Z,16.87
2022-08-27T05:59:44.893Z,17.31
2022-08-27T06:02:13.054Z,17.66
2022-08-27T06:04:40.366Z,17.52
2022-08-27T06:07:11.738Z,17.66
2022-08-27T06:09:43.835Z,17.93
2022-08-27T06:12:14.699Z,17.98
2022-08-27T06:14:48.095Z,17.88
2022-08-27T06:17:18.947Z,17.93
2022-08-27T06:19:49.347Z,18.07
2022-08-27T06:22:23.222Z,18.22
2022-08-27T06:24:51.369Z,18.48
2022-08-27T06:27:20.084Z,18.69
2022-08-27T06:29:53.109Z,18.87
2022-08-27T06:32:24.092Z,19.07
2022-08-27T06:34:51.469Z,19.32
2022-08-27T06:37:21.309Z,19.55
2022-08-27T06:39:50.333Z,19.54
2022-08-27T06:42:19.798Z,19.66
2022-08-27T06:45:11.425Z,19.44
2022-08-27T06:47:43.051Z,19.19
2022-08-27T06:50:10.444Z,19.14
2022-08-27T06:52:37.398Z,19.20
2022-08-27T06:55:08.813Z,19.14
2022-08-27T06:57:39.000Z,19.13
2022-08-27T07:00:12.433Z,18.95
2022-08-27T07:02:50.276Z,18.95
2022-08-27T07:05:21.397Z,19.03
2022-08-27T07:07:50.010Z,18.82
2022-08-27T07:10:18.480Z,18.75
2022-08-27T07:12:46.994Z,18.62
2022-08-27T07:15:13.872Z,18.42
2022-08-27T07:17:41.923Z,18.16
2022-08-27T07:20:11.036Z,17.92
2022-08-27T07:22:41.237Z,18.21
2022-08-27T07:25:12.345Z,18.54
2022-08-27T07:27:40.268Z,18.57
2022-08-27T07:30:11.975Z,19.09
2022-08-27T07:32:39.717Z,19.04
2022-08-27T07:35:08.175Z,18.90
2022-08-27T07:37:42.471Z,18.89
2022-08-27T07:40:12.609Z,19.25
2022-08-27T07:42:47.110Z,19.50
2022-08-27T07:45:14.072Z,19.46
2022-08-27T07:47:42.456Z,18.95
2022-08-27T07:50:10.714Z,18.86
2022-08-27T07:52:46.626Z,19.09
2022-08-27T07:55:17.684Z,19.43
2022-08-27T07:57:47.023Z,19.67
2022-08-27T08:00:17.021Z,19.82
2022-08-27T08:02:52.019Z,19.90
2022-08-27T08:05:21.890Z,20.26
2022-08-27T08:07:53.340Z,20.71
2022-08-27T08:10:22.999Z,21.14
2022-08-27T08:12:53.150Z,21.43
2022-08-27T08:15:21.783Z,21.91
2022-08-27T08:17:49.651Z,21.68
2022-08-27T08:20:35.652Z,21.88
2022-08-27T08:23:10.653Z,22.03
2022-08-27T08:25:38.880Z,21.80
2022-08-27T08:28:07.105Z,21.92
2022-08-27T08:30:37.392Z,22.34
2022-08-27T08:33:04.630Z,22.52
2022-08-27T08:35:40.862Z,22.62
2022-08-27T08:38:17.841Z,22.75
2022-08-27T08:40:49.617Z,23.15
2022-08-27T08:43:31.941Z,23.36
2022-08-27T08:46:16.216Z,23.68
2022-08-27T08:48:52.667Z,23.79
2022-08-27T08:51:25.622Z,23.59
2022-08-27T08:54:00.046Z,23.94
2022-08-27T08:56:43.276Z,24.03
2022-08-27T08:59:23.827Z,24.29
2022-08-27T09:01:58.576Z,24.47
2022-08-27T09:04:29.994Z,24.68
2022-08-27T09:07:08.748Z,24.86
2022-08-27T09:09:47.171Z,25.00
2022-08-27T09:12:25.771Z,24.88
2022-08-27T09:15:05.130Z,24.95
2022-08-27T09:17:34.097Z,24.31
2022-08-27T09:20:02.294Z,24.25
2022-08-27T09:22:40.980Z,24.68
2022-08-27T09:25:25.546Z,25.05
2022-08-27T09:27:56.982Z,25.18
2022-08-27T09:30:30.714Z,25.41
2022-08-27T09:33:00.442Z,25.57
2022-08-27T09:35:45.632Z,25.43
2022-08-27T09:38:24.460Z,25.32
2022-08-27T09:41:01.893Z,25.52
2022-08-27T09:43:30.531Z,25.56
2022-08-27T09:46:00.066Z,25.72
2022-08-27T09:48:31.729Z,25.89
2022-08-27T09:51:01.830Z,26.10
2022-08-27T09:53:33.855Z,26.20
2022-08-27T09:56:04.322Z,26.24
2022-08-27T09:58:36.798Z,26.27
2022-08-27T10:01:10.074Z,26.31
2022-08-27T10:03:39.384Z,26.35
2022-08-27T10:06:08.274Z,26.36
2022-08-27T10:08:38.485Z,26.32
2022-08-27T10:11:14.723Z,26.56
2022-08-27T10:13:54.338Z,26.68
2022-08-27T10:16:41.794Z,26.80
2022-08-27T10:19:18.925Z,26.82
2022-08-27T10:21:52.420Z,26.93
2022-08-27T10:24:28.208Z,26.49
2022-08-27T10:27:19.799Z,26.71
2022-08-27T10:29:53.366Z,26.16
2022-08-27T10:32:39.475Z,26.50
2022-08-27T10:35:14.098Z,26.48
2022-08-27T10:38:00.385Z,26.69
2022-08-27T10:40:35.596Z,27.00
2022-08-27T10:43:23.607Z,27.12
2022-08-27T10:46:01.038Z,27.44
2022-08-27T10:48:37.009Z,27.67
2022-08-27T10:51:09.881Z,27.82
2022-08-27T10:53:46.696Z,27.92
2022-08-27T10:56:22.073Z,28.14
2022-08-27T10:59:03.085Z,28.09
2022-08-27T11:01:40.316Z,27.67
2022-08-27T11:04:14.695Z,27.21
2022-08-27T11:06:44.753Z,27.44
2022-08-27T11:09:19.222Z,27.67
2022-08-27T11:14:45.575Z,27.54
2022-08-27T11:17:17.295Z,27.44
2022-08-27T11:19:54.355Z,27.67
2022-08-27T11:22:26.799Z,27.92
2022-08-27T11:25:00.789Z,27.70
2022-08-27T11:30:30.296Z,28.34
2022-08-27T11:33:05.748Z,28.38
2022-08-27T11:35:51.197Z,28.42
2022-08-27T11:38:42.332Z,28.57
2022-08-27T11:41:29.355Z,28.21
2022-08-27T11:44:14.014Z,28.26
2022-08-27T11:46:53.650Z,28.25
2022-08-27T11:49:40.777Z,27.99
2022-08-27T11:52:09.466Z,28.02
2022-08-27T11:54:48.171Z,28.22
2022-08-27T11:57:27.060Z,28.44
2022-08-27T11:59:55.834Z,28.50
2022-08-27T12:02:27.070Z,28.50
2022-08-27T12:05:13.030Z,28.61
2022-08-27T12:07:49.626Z,28.74
2022-08-27T12:10:29.622Z,28.73
2022-08-27T12:13:16.377Z,28.70
2022-08-27T12:15:55.926Z,28.84
2022-08-27T12:18:56.315Z,28.93
2022-08-27T12:21:42.789Z,28.93
2022-08-27T12:24:21.596Z,28.77
2022-08-27T12:26:57.688Z,28.74
2022-08-27T12:29:30.766Z,28.67
2022-08-27T12:32:05.318Z,28.29
2022-08-27T12:34:45.456Z,28.01
2022-08-27T12:37:14.702Z,27.41
2022-08-27T12:39:45.428Z,26.88
2022-08-27T12:42:15.040Z,26.69
2022-08-27T12:44:44.180Z,26.33
2022-08-27T12:47:20.272Z,26.03
2022-08-27T12:49:57.561Z,25.72
2022-08-27T12:52:49.358Z,25.21
2022-08-27T12:55:29.109Z,25.08
2022-08-27T12:58:06.385Z,24.88
2022-08-27T13:00:49.672Z,24.62
2022-08-27T13:03:33.163Z,24.58
2022-08-27T13:06:17.053Z,24.29
2022-08-27T13:08:44.140Z,23.64
2022-08-27T13:11:18.179Z,23.58
2022-08-27T13:13:45.686Z,23.50
2022-08-27T13:16:16.307Z,23.33
2022-08-27T13:18:47.542Z,22.81
2022-08-27T13:21:22.964Z,22.64
2022-08-27T13:23:58.489Z,22.74
2022-08-27T13:26:32.864Z,22.75
2022-08-27T13:29:03.705Z,22.81
2022-08-27T13:31:33.261Z,22.69
2022-08-27T13:34:03.571Z,22.52
2022-08-27T13:36:55.610Z,22.52
2022-08-27T13:39:24.953Z,22.33
2022-08-27T13:41:57.057Z,22.22
2022-08-27T13:44:32.822Z,22.00
2022-08-27T13:47:03.611Z,21.66
2022-08-27T13:49:33.534Z,21.66
2022-08-27T13:52:23.814Z,21.74
2022-08-27T13:55:00.410Z,21.78
2022-08-27T13:57:35.082Z,21.76
2022-08-27T14:00:07.967Z,21.61
2022-08-27T14:02:37.356Z,21.58
2022-08-27T14:05:10.356Z,21.59
2022-08-27T14:07:43.766Z,21.64
2022-08-27T14:10:29.635Z,21.57
2022-08-27T14:12:59.392Z,21.55
2022-08-27T14:15:32.088Z,21.49
2022-08-27T14:18:02.372Z,21.38
2022-08-27T14:20:29.724Z,21.33
2022-08-27T14:22:58.043Z,21.33
2022-08-27T14:25:30.496Z,21.33
2022-08-27T14:27:57.341Z,21.16
2022-08-27T14:30:29.968Z,21.13
2022-08-27T14:32:59.311Z,21.01
2022-08-27T14:35:26.958Z,20.75
2022-08-27T14:37:55.607Z,20.75
2022-08-27T14:40:33.056Z,20.54
2022-08-27T14:43:00.018Z,20.49
2022-08-27T14:45:29.447Z,20.45
2022-08-27T14:48:02.186Z,20.61
2022-08-27T14:50:34.963Z,20.65
2022-08-27T14:53:01.810Z,20.60
2022-08-27T14:55:35.396Z,20.67
2022-08-27T14:58:03.533Z,20.74
2022-08-27T15:00:31.635Z,20.63
2022-08-27T15:03:03.599Z,20.48
2022-08-27T15:05:32.211Z,20.16
2022-08-27T15:07:59.434Z,20.06
2022-08-27T15:10:27.809Z,20.15
2022-08-27T15:12:58.329Z,20.05
2022-08-27T15:15:25.702Z,19.93
2022-08-27T15:17:57.873Z,19.73
2022-08-27T15:20:24.689Z,19.86
2022-08-27T15:22:55.425Z,19.49
2022-08-27T15:25:25.871Z,19.20
2022-08-27T15:27:55.263Z,19.29
2022-08-27T15:30:29.186Z,18.92
2022-08-27T15:33:21.225Z,18.79
2022-08-27T15:35:49.599Z,18.54
2022-08-27T15:38:18.674Z,18.53
2022-08-27T15:40:45.808Z,18.54
2022-08-27T15:43:14.189Z,18.55
2022-08-27T15:45:42.645Z,18.60
2022-08-27T15:48:11.309Z,18.68
2022-08-27T15:50:38.692Z,18.68
2022-08-27T15:53:07.958Z,18.51
2022-08-27T15:55:37.619Z,18.68
2022-08-27T15:58:08.446Z,18.66
2022-08-27T16:00:39.409Z,18.74
2022-08-27T16:03:16.053Z,18.75
2022-08-27T16:05:46.923Z,18.71
2022-08-27T16:08:15.041Z,18.67
2022-08-27T16:10:42.266Z,18.73
2022-08-27T16:13:09.863Z,18.68
2022-08-27T16:15:43.252Z,18.63
2022-08-27T16:18:12.848Z,18.64
2022-08-27T16:20:40.721Z,18.58
2022-08-27T16:23:15.189Z,18.62
2022-08-27T16:25:45.506Z,18.52
2022-08-27T16:28:13.269Z,18.41
2022-08-27T16:30:40.835Z,18.31
2022-08-27T16:33:09.566Z,18.33
2022-08-27T16:35:42.085Z,18.23
2022-08-27T16:38:11.414Z,18.09
2022-08-27T16:40:42.517Z,18.04
2022-08-27T16:43:12.652Z,17.96
2022-08-27T16:45:40.066Z,17.81
2022-08-27T16:48:07.043Z,17.81
2022-08-27T16:50:42.962Z,17.82
2022-08-27T16:53:13.732Z,17.87
2022-08-27T16:55:41.840Z,17.88
2022-08-27T16:58:15.172Z,17.89
2022-08-27T17:00:44.132Z,17.89
2022-08-27T17:03:13.877Z,17.85
2022-08-27T17:05:43.068Z,17.80
2022-08-27T17:08:12.762Z,17.81
2022-08-27T17:10:47.130Z,17.71
2022-08-27T17:13:19.937Z,17.73
2022-08-27T17:15:52.587Z,17.73
2022-08-27T17:18:22.787Z,17.72
2022-08-27T17:20:59.562Z,17.47
2022-08-27T17:23:33.949Z,17.13
2022-08-27T17:26:03.032Z,16.52
2022-08-27T17:28:30.153Z,16.21
2022-08-27T17:31:00.896Z,15.78
2022-08-27T17:33:32.173Z,15.73
2022-08-27T17:36:00.642Z,15.54
2022-08-27T17:38:32.023Z,15.46
2022-08-27T17:40:59.311Z,15.32
2022-08-27T17:43:26.308Z,15.34
2022-08-27T17:45:53.211Z,15.30
2022-08-27T17:48:26.058Z,15.28
2022-08-27T17:50:54.037Z,15.07
2022-08-27T17:53:23.703Z,15.09
2022-08-27T17:55:51.979Z,14.81
2022-08-27T17:58:21.495Z,14.96
2022-08-27T18:00:49.569Z,14.60
2022-08-27T18:03:20.674Z,14.51
2022-08-27T18:05:48.608Z,14.35
2022-08-27T18:08:20.565Z,14.28
2022-08-27T18:10:53.823Z,14.21
2022-08-27T18:13:21.865Z,14.03
2022-08-27T18:15:48.992Z,14.14
2022-08-27T18:18:18.750Z,14.19
2022-08-27T18:20:49.845Z,14.30
2022-08-27T18:23:19.396Z,14.33
2022-08-27T18:25:47.016Z,14.25
2022-08-27T18:28:20.086Z,14.19
2022-08-27T18:30:49.602Z,14.26
2022-08-27T18:33:18.886Z,14.26
2022-08-27T18:35:48.190Z,14.11
2022-08-27T18:38:15.818Z,13.97
2022-08-27T18:40:49.160Z,14.02
2022-08-27T18:43:20.763Z,13.90
2022-08-27T18:45:54.126Z,14.05
2022-08-27T18:48:22.502Z,13.97
2022-08-27T18:50:52.026Z,13.91
2022-08-27T18:53:19.993Z,13.84
2022-08-27T18:55:48.562Z,13.93
2022-08-27T18:58:16.281Z,13.98
2022-08-27T19:00:48.496Z,13.93
2022-08-27T19:03:22.990Z,13.76
2022-08-27T19:05:54.993Z,13.76
2022-08-27T19:08:23.774Z,13.78
2022-08-27T19:10:53.014Z,13.70
2022-08-27T19:13:26.624Z,13.65
2022-08-27T19:16:00.123Z,13.67
2022-08-27T19:18:29.504Z,13.73
2022-08-27T19:21:01.677Z,13.59
2022-08-27T19:23:29.495Z,13.61
2022-08-27T19:26:02.363Z,13.67
2022-08-27T19:28:38.153Z,13.78
2022-08-27T19:31:11.535Z,13.73
2022-08-27T19:33:39.041Z,13.72
2022-08-27T19:36:12.581Z,13.46
2022-08-27T19:38:43.338Z,13.36
2022-08-27T19:41:12.471Z,13.50
2022-08-27T19:43:40.996Z,13.49
2022-08-27T19:46:20.663Z,13.50
2022-08-27T19:48:49.064Z,13.52
2022-08-27T19:51:18.885Z,13.46
2022-08-27T19:53:46.363Z,13.63
2022-08-27T19:56:14.393Z,13.50
2022-08-27T19:58:42.302Z,13.44
2022-08-27T20:01:10.964Z,13.52
2022-08-27T20:03:43.764Z,13.61
2022-08-27T20:06:12.367Z,13.48
2022-08-27T20:08:41.752Z,13.38
2022-08-27T20:11:09.284Z,13.46
2022-08-27T20:13:38.501Z,13.37
2022-08-27T20:16:18.944Z,13.34
2022-08-27T20:18:49.295Z,13.38
2022-08-27T20:21:16.422Z,13.44
2022-08-27T20:23:47.872Z,13.35
2022-08-27T20:26:15.753Z,13.40
2022-08-27T20:28:45.647Z,13.50
2022-08-27T20:31:13.918Z,13.48
2022-08-27T20:33:41.520Z,13.50
2022-08-27T20:36:13.535Z,13.57
2022-08-27T20:38:49.599Z,13.60
2022-08-27T20:41:16.967Z,13.58
2022-08-27T20:43:44.734Z,13.63
2022-08-27T20:46:14.460Z,13.72
2022-08-27T20:48:41.922Z,13.56
2022-08-27T20:51:10.983Z,13.51
2022-08-27T20:53:39.014Z,13.57
2022-08-27T20:56:07.403Z,13.60
2022-08-27T20:58:34.741Z,13.57
2022-08-27T21:01:05.069Z,13.66
2022-08-27T21:03:33.111Z,13.68
2022-08-27T21:06:01.175Z,13.70
2022-08-27T21:08:31.880Z,13.78
2022-08-27T21:10:58.929Z,13.74
2022-08-27T21:13:27.841Z,13.78
2022-08-27T21:15:56.497Z,13.69
2022-08-27T21:18:29.295Z,13.56
2022-08-27T21:21:00.068Z,13.46
2022-08-27T21:23:27.768Z,13.42
2022-08-27T21:26:01.565Z,13.44
2022-08-27T21:28:28.593Z,13.48
2022-08-27T21:30:56.686Z,13.44
2022-08-27T21:33:24.090Z,13.40
2022-08-27T21:35:51.178Z,13.53
2022-08-27T21:38:17.972Z,13.50
2022-08-27T21:40:44.919Z,13.37
2022-08-27T21:43:13.516Z,13.37
2022-08-27T21:45:40.636Z,13.34
2022-08-27T21:48:12.736Z,13.37
2022-08-27T21:50:40.012Z,13.29
2022-08-27T21:53:06.983Z,13.30
2022-08-27T21:55:34.383Z,13.44
2022-08-27T21:58:02.722Z,13.40
2022-08-27T22:00:44.442Z,13.43
2022-08-27T22:03:17.384Z,13.42
2022-08-27T22:05:47.647Z,13.41
2022-08-27T22:08:21.153Z,13.17
2022-08-27T22:10:51.908Z,13.47
2022-08-27T22:13:19.899Z,13.43
2022-08-27T22:15:48.724Z,13.40
2022-08-27T22:18:19.801Z,13.43
2022-08-27T22:20:50.730Z,13.39
2022-08-27T22:23:21.286Z,13.30
2022-08-27T22:25:51.070Z,13.32
2022-08-27T22:28:24.399Z,13.27
2022-08-27T22:30:53.042Z,13.30
2022-08-27T22:33:20.450Z,13.35
2022-08-27T22:35:48.519Z,13.23
2022-08-27T22:38:15.406Z,13.17
2022-08-27T22:40:45.244Z,13.23
2022-08-27T22:43:14.640Z,13.08
2022-08-27T22:45:42.934Z,13.03
2022-08-27T22:48:12.365Z,13.03
2022-08-27T22:50:42.240Z,13.02
2022-08-27T22:53:13.364Z,13.02
2022-08-27T22:55:46.758Z,12.96
2022-08-27T22:58:19.164Z,12.92
2022-08-27T23:00:52.809Z,12.90
2022-08-27T23:03:24.575Z,12.81
2022-08-27T23:05:51.964Z,12.75
2022-08-27T23:08:19.292Z,13.02
2022-08-27T23:10:49.228Z,13.04
2022-08-27T23:13:18.394Z,12.94
2022-08-27T23:15:46.447Z,12.90
2022-08-27T23:18:15.331Z,12.83
2022-08-27T23:20:45.520Z,12.74
2022-08-27T23:23:12.870Z,12.75
2022-08-27T23:25:43.844Z,12.78
2022-08-27T23:28:14.259Z,12.77
2022-08-27T23:30:45.597Z,12.73
2022-08-27T23:33:14.234Z,12.70
2022-08-27T23:35:43.759Z,12.52
2022-08-27T23:38:13.379Z,12.56
2022-08-27T23:40:42.618Z,12.55
2022-08-27T23:43:11.241Z,12.44
2022-08-27T23:45:40.788Z,12.40
2022-08-27T23:48:09.818Z,12.37
2022-08-27T23:50:40.246Z,12.31
2022-08-27T23:53:10.617Z,12.15
2022-08-27T23:55:37.846Z,12.13
2022-08-27T23:58:11.884Z,12.08
